Time;durP1;ratioP1;P1;durP2;ratioP2;P2;SDS_P1;SDS_P2;PMS_P1;PMS_P2;Temp;Humidity;BMP_temperature;BMP_pressure;BME280_temperature;BME280_humidity;BME280_pressure;Samples;Min_cycle;Max_cycle;Signal;HPM_P1;HPM_P2
2020/12/18 09:00:57;;;;;;;19.60;10.75;;;;;;;2.56;75.37;101620.53;1748807;77;22455;-73
2020/12/18 09:03:25;;;;;;;17.77;9.95;;;;;;;2.53;75.45;101622.11;1738410;81;21177;-72
2020/12/18 09:05:53;;;;;;;15.45;7.58;;;;;;;2.57;75.35;101617.33;1699988;81;21180;-70
2020/12/18 09:08:20;;;;;;;20.08;8.85;;;;;;;2.62;75.20;101616.03;1675940;84;21797;-73
2020/12/18 09:10:56;;;;;;;19.48;9.03;;;;;;;2.64;75.03;101610.51;1647867;87;21396;-73
2020/12/18 09:13:29;;;;;;;16.62;8.68;;;;;;;2.64;75.02;101611.37;1647645;86;21420;-70
2020/12/18 09:16:02;;;;;;;23.60;10.90;;;;;;;2.68;75.02;101606.59;1652464;85;21711;-71
2020/12/18 09:18:37;;;;;;;20.25;10.35;;;;;;;2.70;75.10;101612.25;1651985;85;21781;-69
2020/12/18 09:21:15;;;;;;;164.43;58.55;;;;;;;2.72;75.04;101607.59;1647397;87;21190;-70
2020/12/18 09:23:46;;;;;;;97.75;37.42;;;;;;;2.72;74.89;101603.53;1647839;85;21775;-69
2020/12/18 09:26:25;;;;;;;29.40;13.93;;;;;;;2.73;74.89;101593.08;1646782;86;21172;-67
2020/12/18 09:28:52;;;;;;;19.00;9.60;;;;;;;2.77;75.08;101595.92;1649098;86;21406;-68
2020/12/18 09:31:20;;;;;;;28.32;13.00;;;;;;;2.85;75.04;101596.19;1652034;85;21873;-69
2020/12/18 09:33:47;;;;;;;20.60;9.43;;;;;;;2.91;74.94;101594.84;1647560;85;21952;-63
2020/12/18 09:36:19;;;;;;;30.12;15.63;;;;;;;2.96;74.93;101582.31;1647441;85;21270;-64
2020/12/18 09:38:54;;;;;;;26.00;14.25;;;;;;;3.01;74.82;101578.75;1647572;85;21301;-72
2020/12/18 09:41:22;;;;;;;19.80;9.28;;;;;;;3.09;74.67;101574.95;1647377;85;21556;-65
2020/12/18 09:43:50;;;;;;;20.32;7.30;;;;;;;3.16;74.46;101572.13;1647443;87;21202;-68
2020/12/18 09:46:23;;;;;;;14.53;6.83;;;;;;;3.15;73.84;101575.81;1647542;85;21517;-67
2020/12/18 09:48:50;;;;;;;21.77;10.70;;;;;;;3.15;73.34;101567.69;1656824;84;21867;-65
2020/12/18 09:51:19;;;;;;;22.75;11.85;;;;;;;3.15;73.33;101573.97;1636995;85;21251;-66
2020/12/18 09:53:47;;;;;;;16.67;8.00;;;;;;;3.18;73.22;101573.73;1651548;85;21430;-63
2020/12/18 09:56:15;;;;;;;18.85;8.75;;;;;;;3.22;73.11;101570.28;1679117;84;21420;-64
2020/12/18 09:58:43;;;;;;;26.50;13.58;;;;;;;3.24;72.81;101575.09;1664041;85;21171;-66
2020/12/18 10:01:17;;;;;;;30.62;13.88;;;;;;;3.29;72.77;101578.82;1650711;86;21448;-67
2020/12/18 10:03:46;;;;;;;23.98;11.12;;;;;;;3.30;72.53;101574.64;1656720;85;21194;-63
2020/12/18 10:06:13;;;;;;;18.27;9.63;;;;;;;3.34;72.40;101578.83;1641722;86;21381;-63
2020/12/18 10:08:41;;;;;;;14.40;8.25;;;;;;;3.38;72.10;101573.53;1656150;84;21253;-63
2020/12/18 10:11:08;;;;;;;16.45;7.97;;;;;;;3.38;71.95;101577.59;1639267;86;21718;-63
2020/12/18 10:13:36;;;;;;;16.62;9.10;;;;;;;3.35;71.89;101575.13;1639780;86;21859;-69
2020/12/18 10:16:05;;;;;;;18.42;9.95;;;;;;;3.35;72.02;101572.42;1639714;87;21352;-68
2020/12/18 10:18:33;;;;;;;18.37;9.33;;;;;;;3.38;72.03;101569.95;1637672;87;21536;-65
2020/12/18 10:21:03;;;;;;;19.17;9.33;;;;;;;3.37;72.02;101568.23;1663561;84;21896;-68
2020/12/18 10:23:30;;;;;;;16.02;7.62;;;;;;;3.37;72.09;101558.75;1651181;84;21839;-65
2020/12/18 10:25:58;;;;;;;15.35;7.42;;;;;;;3.36;72.12;101557.89;1655711;84;21870;-67
2020/12/18 10:28:26;;;;;;;16.37;8.05;;;;;;;3.36;72.24;101561.95;1598165;87;21501;-66
2020/12/18 10:30:54;;;;;;;20.02;7.95;;;;;;;3.36;72.38;101561.95;1614790;88;21217;-62
2020/12/18 10:33:22;;;;;;;15.15;7.83;;;;;;;3.30;72.43;101561.09;1616910;87;21207;-62
2020/12/18 10:35:50;;;;;;;15.28;7.72;;;;;;;3.28;72.59;101567.61;1608130;87;21447;-64
2020/12/18 10:38:17;;;;;;;16.17;8.18;;;;;;;3.26;72.64;101565.03;1649153;86;21976;-65
2020/12/18 10:40:44;;;;;;;13.65;6.72;;;;;;;3.19;72.74;101557.84;1615147;88;21520;-64
2020/12/18 10:43:12;;;;;;;12.28;5.87;;;;;;;3.21;72.75;101556.86;1596843;89;21513;-65
2020/12/18 10:45:40;;;;;;;13.00;6.80;;;;;;;3.22;72.63;101566.22;1635319;86;21365;-65
2020/12/18 10:48:09;;;;;;;14.73;7.70;;;;;;;3.18;72.63;101559.33;1638327;87;21515;-65
2020/12/18 10:50:38;;;;;;;12.90;7.05;;;;;;;3.15;72.84;101558.22;1641508;86;21242;-66
2020/12/18 10:53:06;;;;;;;13.93;7.25;;;;;;;3.14;72.98;101547.02;1653445;85;21878;-66
2020/12/18 10:55:34;;;;;;;11.63;6.40;;;;;;;3.15;72.99;101552.80;1625495;87;21182;-65
2020/12/18 10:58:01;;;;;;;11.22;6.20;;;;;;;3.15;72.95;101555.51;1664572;86;21280;-65
2020/12/18 11:00:28;;;;;;;11.60;5.47;;;;;;;3.14;72.83;101553.78;1614575;87;21181;-65
2020/12/18 11:02:57;;;;;;;11.97;5.80;;;;;;;3.11;72.58;101545.91;1645059;86;21618;-65
2020/12/18 11:08:17;;;;;;;9.45;5.53;;;;;;;3.17;72.53;101535.94;1820611;77;22163;-65
2020/12/18 11:10:46;;;;;;;26.55;11.30;;;;;;;3.12;72.36;101539.50;1801165;79;21133;-64
2020/12/18 11:13:13;;;;;;;27.60;10.68;;;;;;;3.08;72.30;101541.59;1718340;83;21415;-65
2020/12/18 11:15:43;;;;;;;14.87;7.28;;;;;;;3.05;72.35;101543.19;1722615;82;21258;-64
2020/12/18 11:18:10;;;;;;;57.48;26.23;;;;;;;3.04;72.23;101546.02;1735761;81;21240;-63
2020/12/18 11:20:37;;;;;;;22.40;10.23;;;;;;;3.03;72.32;101545.65;1717438;82;22078;-63
2020/12/18 11:23:05;;;;;;;20.77;10.32;;;;;;;3.03;72.48;101544.30;1713101;81;21409;-64
2020/12/18 11:25:33;;;;;;;14.35;8.05;;;;;;;3.04;72.47;101539.25;1718717;82;21221;-62
2020/12/18 11:28:00;;;;;;;15.93;7.62;;;;;;;3.05;72.55;101540.97;1718265;82;21293;-64
2020/12/18 11:30:27;;;;;;;13.05;7.30;;;;;;;3.07;72.59;101533.09;1734151;82;21423;-65
2020/12/18 11:32:55;;;;;;;23.55;13.55;;;;;;;3.09;72.51;101536.55;1717195;82;21165;-63
2020/12/18 11:35:24;;;;;;;23.47;12.53;;;;;;;3.08;72.57;101543.44;1728020;82;21189;-62
2020/12/18 11:37:51;;;;;;;11.45;5.87;;;;;;;3.08;72.55;101538.02;1717213;83;21162;-64
2020/12/18 11:40:19;;;;;;;12.55;7.12;;;;;;;3.08;72.47;101536.17;1717389;83;21992;-61
2020/12/18 11:42:58;;;;;;;13.13;7.25;;;;;;;3.08;72.37;101536.17;1717624;83;21209;-63
2020/12/18 11:45:26;;;;;;;13.05;7.87;;;;;;;3.06;72.49;101542.20;1718040;83;21349;-64
2020/12/18 11:47:53;;;;;;;14.03;7.15;;;;;;;3.05;72.57;101540.48;1726998;82;21918;-63
2020/12/18 11:50:20;;;;;;;9.45;5.65;;;;;;;3.04;72.75;101535.19;1750133;81;21756;-63
2020/12/18 11:52:48;;;;;;;12.40;6.87;;;;;;;3.03;72.96;101528.91;1752081;82;21186;-63
2020/12/18 11:55:15;;;;;;;13.65;6.90;;;;;;;3.05;73.06;101531.50;1704334;82;21763;-63
2020/12/18 11:57:44;;;;;;;12.63;6.80;;;;;;;3.05;73.22;101534.20;1725098;82;21190;-65
2020/12/18 12:00:11;;;;;;;13.80;6.28;;;;;;;3.06;73.31;101527.80;1714582;82;21501;-63
2020/12/18 12:02:41;;;;;;;15.83;7.95;;;;;;;3.07;73.32;101530.88;1711484;83;21214;-65
2020/12/18 12:05:09;;;;;;;14.33;7.12;;;;;;;3.01;73.47;101530.88;1718244;82;21228;-66
2020/12/18 12:07:36;;;;;;;17.23;9.80;;;;;;;3.01;73.64;101533.58;1718630;82;21429;-63
2020/12/18 12:10:04;;;;;;;20.25;10.08;;;;;;;3.01;73.71;101538.14;1726283;82;21166;-62
2020/12/18 12:12:31;;;;;;;15.95;7.60;;;;;;;3.03;73.75;101537.53;1716845;82;21147;-64
2020/12/18 12:14:58;;;;;;;19.60;8.68;;;;;;;3.02;73.69;101527.19;1708773;83;21578;-63
2020/12/18 12:17:26;;;;;;;13.10;7.03;;;;;;;2.99;73.42;101530.14;1763214;79;21147;-64
2020/12/18 12:19:53;;;;;;;13.93;8.10;;;;;;;2.98;73.55;101522.14;1782506;79;21150;-63
2020/12/18 12:22:21;;;;;;;13.90;7.00;;;;;;;2.96;73.73;101522.75;1779972;80;21620;-63
2020/12/18 12:24:48;;;;;;;17.30;7.55;;;;;;;2.94;73.85;101520.16;1751817;80;21101;-62
2020/12/18 12:27:15;;;;;;;12.70;6.62;;;;;;;2.92;74.03;101521.27;1751574;80;21611;-62
2020/12/18 12:29:43;;;;;;;15.35;6.87;;;;;;;2.94;74.12;101522.01;1751645;80;21121;-66
2020/12/18 12:32:10;;;;;;;13.62;7.47;;;;;;;2.94;74.05;101516.59;1751750;80;21137;-67
2020/12/18 12:34:37;;;;;;;14.80;6.97;;;;;;;2.93;73.98;101521.64;1757347;80;21143;-65
2020/12/18 12:37:04;;;;;;;16.40;8.38;;;;;;;2.91;74.09;101518.19;1781106;80;21501;-64
2020/12/18 12:39:32;;;;;;;14.35;7.50;;;;;;;2.89;74.27;101516.09;1714296;84;21137;-69
2020/12/18 12:42:02;;;;;;;18.23;8.65;;;;;;;2.91;74.43;101510.93;1781230;80;21170;-69
2020/12/18 12:44:29;;;;;;;17.60;8.15;;;;;;;2.94;74.54;101519.30;1781053;80;21115;-70
2020/12/18 12:46:57;;;;;;;20.45;9.03;;;;;;;2.97;74.53;101520.41;1771830;80;21171;-69
2020/12/18 12:49:25;;;;;;;22.35;9.83;;;;;;;2.95;74.55;101512.41;1751834;82;21095;-73
2020/12/18 12:51:56;;;;;;;16.05;8.18;;;;;;;2.93;74.58;101515.73;1751987;82;21119;-72
2020/12/18 12:54:24;;;;;;;16.90;8.60;;;;;;;2.94;74.68;101514.75;1752268;80;21143;-70
2020/12/18 12:56:53;;;;;;;20.85;10.32;;;;;;;2.92;74.76;101514.01;1752682;79;21139;-69
2020/12/18 12:59:20;;;;;;;16.30;8.45;;;;;;;2.90;74.89;101524.59;1767947;79;21596;-68
2020/12/18 13:01:48;;;;;;;16.67;9.43;;;;;;;2.88;74.86;101515.23;1751787;82;21170;-68
2020/12/18 13:08:07;;;;;;;21.40;9.28;;;;;;;2.86;74.98;101528.89;1823492;77;22292;-70
2020/12/18 13:10:39;;;;;;;17.73;8.95;;;;;;;2.79;75.08;101524.94;1782523;80;21133;-67
2020/12/18 13:13:08;;;;;;;19.35;9.73;;;;;;;2.78;75.18;101531.83;1752565;81;21315;-65
2020/12/18 13:15:36;;;;;;;20.15;10.18;;;;;;;2.75;75.19;101532.92;1755646;79;21880;-76
2020/12/18 13:18:03;;;;;;;19.40;9.50;;;;;;;2.73;75.35;101529.48;1775403;80;21150;-71
2020/12/18 13:20:31;;;;;;;20.85;10.32;;;;;;;2.72;75.43;101532.30;1766638;80;21127;-71
2020/12/18 13:22:58;;;;;;;19.37;9.15;;;;;;;2.69;75.52;101531.19;1765659;80;21194;-69
2020/12/18 13:25:26;;;;;;;22.30;10.23;;;;;;;2.70;75.58;101525.66;1741986;82;21778;-64
2020/12/18 13:27:53;;;;;;;26.93;11.45;;;;;;;2.68;75.69;101526.27;1741926;81;21184;-67
2020/12/18 13:30:21;;;;;;;23.75;11.15;;;;;;;2.69;75.83;101532.05;1742083;81;21165;-65
2020/12/18 13:32:49;;;;;;;27.22;12.75;;;;;;;2.70;75.88;101527.02;1761073;79;21152;-65
2020/12/18 13:35:19;;;;;;;24.92;11.90;;;;;;;2.71;75.99;101514.34;1766820;79;21297;-65
2020/12/18 13:37:47;;;;;;;23.83;11.08;;;;;;;2.70;76.03;101524.31;1762934;79;21165;-65
2020/12/18 13:40:14;;;;;;;23.75;10.75;;;;;;;2.70;76.04;101526.15;1809443;78;21879;-62
2020/12/18 13:42:42;;;;;;;23.85;11.97;;;;;;;2.71;76.08;101526.03;1715375;82;21156;-62
2020/12/18 13:45:10;;;;;;;26.23;12.55;;;;;;;2.70;76.13;101527.02;1728839;82;21926;-62
2020/12/18 13:47:40;;;;;;;52.03;23.30;;;;;;;2.69;76.27;101532.05;1727344;82;21183;-64
2020/12/18 13:50:08;;;;;;;44.13;21.30;;;;;;;2.69;76.41;101529.34;1716662;83;21498;-66
2020/12/18 13:52:38;;;;;;;29.07;13.60;;;;;;;2.68;76.50;101526.27;1716772;82;21951;-65
2020/12/18 13:55:06;;;;;;;33.75;14.78;;;;;;;2.70;76.57;101515.33;1716741;83;21186;-65
2020/12/18 13:57:33;;;;;;;36.68;16.73;;;;;;;2.71;76.60;101527.88;1734700;82;21349;-65
2020/12/18 14:00:01;;;;;;;39.25;17.57;;;;;;;2.72;76.68;101516.06;1709886;83;21484;-64
2020/12/18 14:02:30;;;;;;;34.70;16.65;;;;;;;2.72;76.73;101511.52;1734525;82;21187;-63
2020/12/18 14:04:58;;;;;;;41.45;17.70;;;;;;;2.69;76.72;101514.46;1690651;83;21208;-65
2020/12/18 14:07:26;;;;;;;31.50;14.30;;;;;;;2.65;76.78;101519.74;1675409;84;21451;-66
2020/12/18 14:09:53;;;;;;;30.57;13.40;;;;;;;2.65;76.90;101518.39;1701367;84;21411;-66
2020/12/18 14:12:21;;;;;;;35.38;16.12;;;;;;;2.65;76.89;101521.59;1738162;82;21284;-69
2020/12/18 14:14:49;;;;;;;33.02;16.57;;;;;;;2.64;76.96;101515.31;1738131;82;21210;-65
2020/12/18 14:17:17;;;;;;;58.10;27.58;;;;;;;2.65;77.03;101517.04;1738098;82;21166;-65
2020/12/18 14:19:45;;;;;;;43.95;19.87;;;;;;;2.66;77.14;101509.78;1737439;82;21494;-65
2020/12/18 14:22:17;;;;;;;52.25;23.45;;;;;;;2.68;77.15;101511.87;1745275;80;21849;-65
2020/12/18 14:24:46;;;;;;;43.15;18.87;;;;;;;2.67;77.11;101513.72;1737603;80;21928;-64
2020/12/18 14:27:13;;;;;;;46.15;21.45;;;;;;;2.69;77.12;101506.84;1738560;81;21440;-66
2020/12/18 14:29:41;;;;;;;31.87;15.15;;;;;;;2.71;77.17;101508.93;1732021;82;21420;-69
2020/12/18 14:32:09;;;;;;;42.78;19.57;;;;;;;2.70;77.14;101512.13;1731235;82;21205;-63
2020/12/18 14:34:38;;;;;;;35.98;17.17;;;;;;;2.70;77.18;101512.13;1736609;82;21508;-64
2020/12/18 14:37:09;;;;;;;31.90;14.18;;;;;;;2.69;77.13;101513.11;1704767;82;21229;-64
2020/12/18 14:39:39;;;;;;;29.40;13.32;;;;;;;2.66;77.11;101513.84;1738355;82;21531;-67
2020/12/18 14:42:09;;;;;;;28.07;12.45;;;;;;;2.66;77.18;101504.37;1739085;81;21179;-71
2020/12/18 14:44:40;;;;;;;28.60;13.00;;;;;;;2.67;77.18;101506.95;1744902;80;21146;-65
2020/12/18 14:47:07;;;;;;;29.10;13.30;;;;;;;2.66;77.23;101505.23;1715709;80;21966;-68
2020/12/18 14:49:35;;;;;;;33.48;14.28;;;;;;;2.65;77.28;101504.86;1737679;82;21210;-69
2020/12/18 14:52:04;;;;;;;34.58;13.80;;;;;;;2.64;77.26;101500.44;1732246;81;21178;-66
2020/12/18 14:54:42;;;;;;;32.95;13.32;;;;;;;2.65;77.24;101504.00;1735726;80;21911;-72
2020/12/18 14:57:11;;;;;;;29.48;13.38;;;;;;;2.65;77.27;101508.92;1777018;80;21604;-66
2020/12/18 14:59:38;;;;;;;28.45;12.93;;;;;;;2.65;77.24;101510.27;1764963;80;21193;-70
2020/12/18 15:02:07;;;;;;;29.40;13.20;;;;;;;2.63;77.22;101507.31;1726631;80;21933;-68
2020/12/18 15:04:36;;;;;;;30.10;14.05;;;;;;;2.59;77.29;101507.15;1726974;82;21186;-64
2020/12/18 15:07:07;;;;;;;38.90;14.20;;;;;;;2.56;77.35;101502.84;1733424;81;21159;-70
2020/12/18 15:09:35;;;;;;;35.83;14.78;;;;;;;2.57;77.46;101505.91;1745710;80;21385;-72
2020/12/18 15:12:03;;;;;;;35.78;15.43;;;;;;;2.61;77.49;101499.81;1746500;82;21177;-71
2020/12/18 15:14:31;;;;;;;34.65;15.55;;;;;;;2.63;77.54;101510.02;1728954;80;21952;-69
2020/12/18 15:16:59;;;;;;;37.53;16.10;;;;;;;2.63;77.55;101500.06;1718441;83;21291;-70
2020/12/18 15:19:26;;;;;;;31.93;14.23;;;;;;;2.62;77.58;101507.80;1757985;80;21162;-71
2020/12/18 15:21:54;;;;;;;36.10;15.15;;;;;;;2.64;77.58;101510.39;1756516;80;21921;-69
2020/12/18 15:24:21;;;;;;;38.40;14.07;;;;;;;2.64;77.55;101502.27;1747055;82;21154;-65
2020/12/18 15:26:50;;;;;;;34.63;14.93;;;;;;;2.64;77.46;101503.14;1745331;82;21859;-68
2020/12/18 15:29:19;;;;;;;31.97;14.05;;;;;;;2.61;77.49;101502.52;1742807;82;21190;-68
2020/12/18 15:31:47;;;;;;;33.33;13.35;;;;;;;2.56;77.65;101502.84;1736759;82;21189;-73
2020/12/18 15:34:14;;;;;;;35.68;14.47;;;;;;;2.55;77.86;101500.63;1713658;83;21170;-74
2020/12/18 15:36:42;;;;;;;33.25;14.68;;;;;;;2.55;77.93;101499.77;1727410;80;21107;-70
2020/12/18 15:39:34;;;;;;;33.13;13.65;;;;;;;2.59;77.93;101494.48;1720593;80;21185;-73
2020/12/18 15:42:05;;;;;;;32.70;13.62;;;;;;;2.59;77.87;101488.21;1718232;83;21162;-70
2020/12/18 15:44:37;;;;;;;32.03;13.85;;;;;;;2.61;77.85;101485.79;1716427;82;21230;-70
2020/12/18 15:47:17;;;;;;;31.45;13.88;;;;;;;2.62;77.79;101483.95;1718668;82;21792;-70
2020/12/18 15:49:47;;;;;;;27.75;12.23;;;;;;;2.62;77.98;101483.95;1734947;80;21860;-70
2020/12/18 15:52:31;;;;;;;33.00;14.68;;;;;;;2.65;77.91;101481.00;1717065;82;21286;-71
2020/12/18 15:55:52;;;;;;;32.80;12.18;;;;;;;2.68;77.88;101474.86;1743338;82;21851;-71
2020/12/18 15:59:00;;;;;;;29.80;13.32;;;;;;;2.68;77.88;101474.86;1744633;80;21491;-69
2020/12/18 16:02:29;;;;;;;23.18;10.05;;;;;;;2.69;77.77;101471.66;1736085;81;21162;-71
2020/12/18 16:05:14;;;;;;;25.85;11.78;;;;;;;2.70;77.82;101467.48;1740500;80;21818;-65
2020/12/18 16:08:12;;;;;;;28.15;13.25;;;;;;;2.69;77.74;101467.11;1742538;81;21883;-68
2020/12/18 16:11:09;;;;;;;30.05;11.68;;;;;;;2.61;77.76;101472.27;1736748;81;21866;-71
2020/12/18 16:13:41;;;;;;;29.05;12.10;;;;;;;2.59;77.87;101470.13;1708837;83;21143;-70
2020/12/18 16:16:14;;;;;;;29.75;12.53;;;;;;;2.57;77.81;101468.04;1708691;83;21166;-71
2020/12/18 16:18:50;;;;;;;28.83;13.03;;;;;;;2.55;77.92;101468.65;1709400;82;21281;-70
2020/12/18 16:24:50;;;;;;;34.83;12.70;;;;;;;2.62;78.16;101466.36;1709391;82;21280;-67
2020/12/18 16:27:18;;;;;;;25.52;11.53;;;;;;;2.61;78.03;101467.34;1709534;83;21198;-66
2020/12/18 16:29:48;;;;;;;31.62;13.20;;;;;;;2.59;78.00;101466.08;1708496;82;21190;-67
2020/12/18 16:32:16;;;;;;;31.42;13.08;;;;;;;2.60;78.06;101461.53;1719912;80;21515;-64
2020/12/18 16:34:44;;;;;;;26.87;11.90;;;;;;;2.63;78.14;101462.18;1724849;80;21540;-69
2020/12/18 16:37:12;;;;;;;28.95;12.65;;;;;;;2.66;78.09;101459.72;1707389;84;21940;-70
2020/12/18 16:39:41;;;;;;;26.12;12.53;;;;;;;2.64;78.11;101454.44;1736296;82;21902;-70
2020/12/18 16:42:08;;;;;;;29.32;12.40;;;;;;;2.65;78.11;101464.27;1734516;82;21221;-65
2020/12/18 16:44:36;;;;;;;37.10;15.28;;;;;;;2.64;78.02;101462.55;1730161;82;21457;-65
2020/12/18 16:47:04;;;;;;;34.35;16.12;;;;;;;2.66;78.06;101467.35;1730202;81;21831;-65
2020/12/18 16:49:31;;;;;;;28.75;13.83;;;;;;;2.69;78.05;101460.84;1730563;81;21401;-65
2020/12/18 16:51:59;;;;;;;27.95;11.93;;;;;;;2.70;77.97;101461.20;1730240;81;21307;-62
2020/12/18 16:54:27;;;;;;;30.90;13.20;;;;;;;2.68;77.91;101458.62;1730046;81;21749;-64
2020/12/18 16:56:54;;;;;;;31.23;11.78;;;;;;;2.62;77.75;101465.00;1730167;83;21806;-63
2020/12/18 16:59:21;;;;;;;34.48;13.28;;;;;;;2.60;77.91;101471.00;1730297;82;21218;-62
2020/12/18 17:01:49;;;;;;;31.95;12.68;;;;;;;2.61;78.01;101468.70;1730138;83;21917;-64
2020/12/18 17:04:16;;;;;;;26.50;11.60;;;;;;;2.63;78.08;101470.30;1730382;81;21449;-62
2020/12/18 17:06:49;;;;;;;30.25;14.15;;;;;;;2.61;77.95;101472.75;1735556;82;21578;-65
2020/12/18 17:09:16;;;;;;;28.00;12.55;;;;;;;2.53;78.02;101470.61;1724497;80;21945;-69
2020/12/18 17:11:44;;;;;;;27.50;12.60;;;;;;;2.52;78.15;101474.30;1716054;83;21213;-64
2020/12/18 17:14:11;;;;;;;30.57;12.50;;;;;;;2.52;78.23;101470.24;1715899;83;21201;-64
2020/12/18 17:16:39;;;;;;;28.45;12.05;;;;;;;2.55;78.18;101483.53;1716039;82;21181;-65
2020/12/18 17:19:06;;;;;;;27.27;12.60;;;;;;;2.51;78.11;101471.23;1716113;83;21404;-67
2020/12/18 17:21:34;;;;;;;28.30;13.08;;;;;;;2.46;78.20;101477.00;1716065;83;22071;-62
2020/12/18 17:24:02;;;;;;;27.98;13.13;;;;;;;2.47;78.29;101488.67;1716196;83;21403;-63
2020/12/18 17:26:29;;;;;;;29.72;11.40;;;;;;;2.44;78.24;101483.50;1716187;83;22154;-64
2020/12/18 17:28:56;;;;;;;30.77;11.90;;;;;;;2.44;78.35;101487.56;1716458;83;21843;-64
2020/12/18 17:31:24;;;;;;;33.15;13.25;;;;;;;2.45;78.37;101485.23;1716258;83;21228;-64
2020/12/18 17:33:51;;;;;;;29.77;12.90;;;;;;;2.44;78.43;101488.91;1716226;83;21153;-64
2020/12/18 17:36:19;;;;;;;38.95;14.95;;;;;;;2.44;78.53;101491.62;1716421;83;21154;-64
2020/12/18 17:38:47;;;;;;;32.50;13.90;;;;;;;2.44;78.60;101483.02;1736564;82;21205;-68
2020/12/18 17:41:15;;;;;;;38.02;14.58;;;;;;;2.47;78.60;101488.67;1752463;81;21901;-67
2020/12/18 17:43:42;;;;;;;37.60;14.47;;;;;;;2.50;78.63;101484.37;1752359;81;21185;-64
2020/12/18 17:46:10;;;;;;;36.30;13.95;;;;;;;2.52;78.54;101487.83;1752808;81;21882;-66
2020/12/18 17:48:37;;;;;;;37.60;15.13;;;;;;;2.54;78.49;101477.75;1753007;81;21920;-66
2020/12/18 17:51:05;;;;;;;40.73;16.45;;;;;;;2.52;78.49;101477.87;1751981;81;21139;-66
2020/12/18 17:53:32;;;;;;;40.35;16.20;;;;;;;2.51;78.56;101474.80;1752287;81;21886;-65
2020/12/18 17:56:05;;;;;;;38.65;15.68;;;;;;;2.53;78.65;101471.48;1752281;82;21847;-68
2020/12/18 17:58:33;;;;;;;33.85;13.58;;;;;;;2.53;78.56;101466.56;1752242;82;21535;-63
2020/12/18 18:01:02;;;;;;;37.40;15.32;;;;;;;2.53;78.47;101474.67;1752136;82;21856;-63
2020/12/18 18:03:30;;;;;;;40.45;15.65;;;;;;;2.51;78.44;101468.52;1752246;81;21146;-62
2020/12/18 18:05:58;;;;;;;37.53;15.55;;;;;;;2.51;78.54;101469.38;1752099;80;21413;-63
2020/12/18 18:08:26;;;;;;;41.73;16.93;;;;;;;2.55;78.66;101461.89;1752091;82;21154;-64
2020/12/18 18:10:53;;;;;;;35.43;15.55;;;;;;;2.57;78.65;101459.92;1749673;82;21177;-64
2020/12/18 18:13:21;;;;;;;42.58;17.32;;;;;;;2.61;78.62;101456.03;1748928;82;21537;-63
2020/12/18 18:15:51;;;;;;;38.73;15.48;;;;;;;2.61;78.50;101457.38;1749962;82;21253;-62
2020/12/18 18:18:19;;;;;;;44.73;15.35;;;;;;;2.61;78.48;101452.46;1752124;82;21412;-64
2020/12/18 18:20:46;;;;;;;40.80;15.98;;;;;;;2.57;78.38;101453.16;1752249;80;21339;-62
2020/12/18 18:23:14;;;;;;;43.00;15.80;;;;;;;2.58;78.32;101458.08;1752220;80;21126;-62
2020/12/18 18:25:41;;;;;;;38.70;15.48;;;;;;;2.57;78.41;101451.80;1752374;82;21158;-64
2020/12/18 18:28:09;;;;;;;38.55;16.23;;;;;;;2.59;78.48;101451.69;1752098;82;21459;-61
2020/12/18 18:30:37;;;;;;;37.25;15.18;;;;;;;2.58;78.46;101452.17;1752078;82;21361;-62
2020/12/18 18:33:04;;;;;;;42.30;14.78;;;;;;;2.59;78.58;101440.37;1752239;81;21772;-63
2020/12/18 18:35:32;;;;;;;36.08;14.20;;;;;;;2.66;78.60;101444.35;1752160;82;21359;-62
2020/12/18 18:37:59;;;;;;;37.53;15.00;;;;;;;2.70;78.52;101448.53;1752239;80;21467;-64
2020/12/18 18:40:28;;;;;;;40.45;16.07;;;;;;;2.75;78.44;101439.56;1752251;80;22052;-61
2020/12/18 18:42:57;;;;;;;35.20;15.05;;;;;;;2.77;78.38;101434.03;1751550;81;21154;-62
2020/12/18 18:45:25;;;;;;;38.98;15.65;;;;;;;2.82;78.28;101440.80;1751971;82;21775;-62
2020/12/18 18:47:52;;;;;;;35.28;15.90;;;;;;;2.79;78.02;101434.77;1752235;82;21213;-63
2020/12/18 18:50:19;;;;;;;38.67;14.23;;;;;;;2.76;77.99;101430.46;1752056;82;21352;-62
2020/12/18 18:52:51;;;;;;;41.50;15.20;;;;;;;2.76;78.01;101433.66;1751971;82;21429;-62
2020/12/18 18:55:19;;;;;;;31.60;14.20;;;;;;;2.80;77.96;101428.37;1752276;82;21404;-61
2020/12/18 18:57:47;;;;;;;38.13;15.68;;;;;;;2.80;77.84;101427.88;1750503;81;21341;-62
2020/12/18 19:00:14;;;;;;;50.98;23.05;;;;;;;2.78;77.76;101423.57;1749632;82;21393;-61
2020/12/18 19:02:44;;;;;;;40.75;17.20;;;;;;;2.72;77.67;101430.83;1751263;80;21151;-62
2020/12/18 19:05:11;;;;;;;33.10;13.58;;;;;;;2.68;77.74;101424.80;1752251;81;21919;-63
2020/12/18 19:07:39;;;;;;;37.42;15.35;;;;;;;2.65;77.85;101426.39;1752373;81;21130;-61
2020/12/18 19:10:08;;;;;;;37.73;15.65;;;;;;;2.64;77.92;101429.22;1740986;81;21166;-62
2020/12/18 19:12:36;;;;;;;36.70;14.63;;;;;;;2.61;78.01;101427.62;1740573;81;21151;-62
2020/12/18 19:15:06;;;;;;;36.95;16.32;;;;;;;2.61;78.03;101430.33;1739262;82;21170;-62
2020/12/18 19:17:41;;;;;;;40.55;16.45;;;;;;;2.57;78.20;101432.88;1739012;82;21472;-62
2020/12/18 19:20:09;;;;;;;36.58;14.18;;;;;;;2.61;78.30;101435.73;1739136;82;21544;-61
2020/12/18 19:22:37;;;;;;;36.73;14.93;;;;;;;2.66;78.29;101435.38;1738971;82;21157;-62
2020/12/18 19:25:06;;;;;;;30.48;13.72;;;;;;;2.70;78.24;101429.59;1739057;81;21433;-63
2020/12/18 19:27:34;;;;;;;37.93;15.72;;;;;;;2.73;78.20;101425.30;1739102;82;21875;-62
2020/12/18 19:30:06;;;;;;;51.10;20.57;;;;;;;2.75;78.13;101426.03;1739207;82;21182;-63
2020/12/18 19:32:34;;;;;;;35.78;14.60;;;;;;;2.76;78.09;101424.19;1739076;81;21183;-62
2020/12/18 19:35:01;;;;;;;33.28;13.55;;;;;;;2.76;78.02;101416.92;1739017;82;21902;-62
2020/12/18 19:37:28;;;;;;;36.75;14.65;;;;;;;2.78;77.98;101420.37;1743595;82;21154;-62
2020/12/18 19:39:56;;;;;;;32.63;13.30;;;;;;;2.75;77.76;101431.45;1743784;82;21182;-65
2020/12/18 19:42:24;;;;;;;31.70;13.50;;;;;;;2.75;77.86;101434.64;1743763;82;21601;-61
2020/12/18 19:44:51;;;;;;;33.48;13.72;;;;;;;2.73;77.85;101425.30;1743622;82;21135;-63
2020/12/18 19:47:19;;;;;;;37.55;15.75;;;;;;;2.69;77.91;101431.07;1743650;81;21389;-63
2020/12/18 19:49:46;;;;;;;40.67;17.98;;;;;;;2.65;77.94;101426.39;1743726;81;21546;-61
2020/12/18 19:52:13;;;;;;;32.17;13.53;;;;;;;2.62;78.08;101427.98;1743702;82;21585;-63
2020/12/18 19:54:40;;;;;;;33.73;12.73;;;;;;;2.63;78.19;101427.00;1743754;81;21139;-63
2020/12/18 19:57:10;;;;;;;34.45;14.18;;;;;;;2.65;78.23;101433.16;1743435;81;21192;-61
2020/12/18 19:59:38;;;;;;;33.65;13.78;;;;;;;2.68;78.31;101434.27;1743327;81;21135;-64
2020/12/18 20:02:08;;;;;;;34.83;13.78;;;;;;;2.69;78.26;101429.23;1743173;82;21209;-62
2020/12/18 20:04:36;;;;;;;37.10;15.38;;;;;;;2.67;78.14;101427.13;1748164;81;21184;-64
2020/12/18 20:07:03;;;;;;;35.83;13.43;;;;;;;2.62;78.13;101433.89;1774497;81;21558;-63
2020/12/18 20:09:31;;;;;;;34.27;12.85;;;;;;;2.61;78.13;101430.81;1781107;80;21099;-62
2020/12/18 20:11:58;;;;;;;34.27;14.10;;;;;;;2.64;78.17;101440.05;1788624;80;21150;-63
2020/12/18 20:14:27;;;;;;;38.23;15.72;;;;;;;2.64;78.10;101435.50;1788578;80;21107;-61
2020/12/18 20:16:54;;;;;;;35.65;16.15;;;;;;;2.65;78.09;101443.98;1788402;80;21232;-63
2020/12/18 20:19:22;;;;;;;35.60;15.25;;;;;;;2.63;77.99;101445.09;1788428;80;21558;-61
2020/12/18 20:21:50;;;;;;;35.73;15.32;;;;;;;2.63;77.99;101445.95;1788426;80;21130;-61
2020/12/18 20:24:17;;;;;;;35.48;13.62;;;;;;;2.62;77.97;101452.34;1788476;80;21111;-63
2020/12/18 20:26:45;;;;;;;32.48;13.20;;;;;;;2.63;77.94;101453.20;1788550;80;21143;-62
2020/12/18 20:29:13;;;;;;;32.65;13.72;;;;;;;2.61;77.81;101449.75;1788483;80;21525;-62
2020/12/18 20:31:40;;;;;;;33.30;13.65;;;;;;;2.57;77.86;101454.52;1788637;80;21100;-63
2020/12/18 20:34:08;;;;;;;40.25;15.83;;;;;;;2.54;77.97;101458.32;1788527;80;21146;-61
2020/12/18 20:36:35;;;;;;;39.00;14.75;;;;;;;2.52;77.98;101448.60;1788552;80;21139;-64
2020/12/18 20:39:03;;;;;;;40.92;14.68;;;;;;;2.54;78.03;101450.70;1788563;80;21099;-63